sensor_id;sensor_type;location;lat;lon;timestamp;temperature;humidity
72128;DHT22;60000;51.030;7.024;2024-03-08T00:01:55;2.84;69.01
72128;DHT22;60000;51.030;7.024;2024-03-08T00:04:20;2.77;69.18
72128;DHT22;60000;51.030;7.024;2024-03-08T00:06:45;2.68;69.20
72128;DHT22;60000;51.030;7.024;2024-03-08T00:09:11;2.64;69.39
72128;DHT22;60000;51.030;7.024;2024-03-08T00:11:37;2.54;69.57
72128;DHT22;60000;51.030;7.024;2024-03-08T00:14:02;2.49;70.00
72128;DHT22;60000;51.030;7.024;2024-03-08T00:16:32;2.42;70.14
72128;DHT22;60000;51.030;7.024;2024-03-08T00:18:57;2.35;70.26
72128;DHT22;60000;51.030;7.024;2024-03-08T00:21:23;2.30;70.59
72128;DHT22;60000;51.030;7.024;2024-03-08T00:23:48;2.25;70.99
72128;DHT22;60000;51.030;7.024;2024-03-08T00:26:13;2.22;71.37
72128;DHT22;60000;51.030;7.024;2024-03-08T00:28:38;2.21;71.60
72128;DHT22;60000;51.030;7.024;2024-03-08T00:31:04;2.18;71.74
72128;DHT22;60000;51.030;7.024;2024-03-08T00:33:29;2.21;72.01
72128;DHT22;60000;51.030;7.024;2024-03-08T00:35:54;2.19;71.86
72128;DHT22;60000;51.030;7.024;2024-03-08T00:38:20;2.15;71.90
72128;DHT22;60000;51.030;7.024;2024-03-08T00:40:45;2.14;72.11
72128;DHT22;60000;51.030;7.024;2024-03-08T00:43:10;2.16;72.37
72128;DHT22;60000;51.030;7.024;2024-03-08T00:45:36;2.19;72.54
72128;DHT22;60000;51.030;7.024;2024-03-08T00:48:03;2.19;72.22
72128;DHT22;60000;51.030;7.024;2024-03-08T00:50:28;2.25;72.65
72128;DHT22;60000;51.030;7.024;2024-03-08T00:52:53;2.26;72.40
72128;DHT22;60000;51.030;7.024;2024-03-08T00:55:22;2.29;72.35
72128;DHT22;60000;51.030;7.024;2024-03-08T00:57:47;2.32;72.07
72128;DHT22;60000;51.030;7.024;2024-03-08T01:00:13;2.32;72.31
72128;DHT22;60000;51.030;7.024;2024-03-08T01:02:39;2.39;72.39
72128;DHT22;60000;51.030;7.024;2024-03-08T01:05:05;2.40;72.09
72128;DHT22;60000;51.030;7.024;2024-03-08T01:07:33;2.43;72.05
72128;DHT22;60000;51.030;7.024;2024-03-08T01:09:59;2.43;72.10
72128;DHT22;60000;51.030;7.024;2024-03-08T01:12:25;2.45;72.11
72128;DHT22;60000;51.030;7.024;2024-03-08T01:14:51;2.43;71.89
72128;DHT22;60000;51.030;7.024;2024-03-08T01:17:16;2.46;72.08
72128;DHT22;60000;51.030;7.024;2024-03-08T01:19:42;2.47;71.98
72128;DHT22;60000;51.030;7.024;2024-03-08T01:22:10;2.46;71.89
72128;DHT22;60000;51.030;7.024;2024-03-08T01:24:35;2.49;71.99
72128;DHT22;60000;51.030;7.024;2024-03-08T01:27:03;2.50;72.02
72128;DHT22;60000;51.030;7.024;2024-03-08T01:29:28;2.50;72.04
72128;DHT22;60000;51.030;7.024;2024-03-08T01:31:57;2.53;71.90
72128;DHT22;60000;51.030;7.024;2024-03-08T01:34:23;2.57;72.06
72128;DHT22;60000;51.030;7.024;2024-03-08T01:36:48;2.58;71.82
72128;DHT22;60000;51.030;7.024;2024-03-08T01:39:14;2.60;71.71
72128;DHT22;60000;51.030;7.024;2024-03-08T01:41:40;2.58;71.65
72128;DHT22;60000;51.030;7.024;2024-03-08T01:44:05;2.57;71.73
72128;DHT22;60000;51.030;7.024;2024-03-08T01:46:32;2.58;71.53
72128;DHT22;60000;51.030;7.024;2024-03-08T01:48:58;2.54;71.68
72128;DHT22;60000;51.030;7.024;2024-03-08T01:51:26;2.52;71.76
72128;DHT22;60000;51.030;7.024;2024-03-08T01:53:51;2.50;71.82
72128;DHT22;60000;51.030;7.024;2024-03-08T01:56:17;2.47;71.83
72128;DHT22;60000;51.030;7.024;2024-03-08T01:58:43;2.43;71.90
72128;DHT22;60000;51.030;7.024;2024-03-08T02:01:10;2.46;72.47
72128;DHT22;60000;51.030;7.024;2024-03-08T02:03:36;2.42;72.33
72128;DHT22;60000;51.030;7.024;2024-03-08T02:06:01;2.45;72.30
72128;DHT22;60000;51.030;7.024;2024-03-08T02:08:26;2.47;72.12
72128;DHT22;60000;51.030;7.024;2024-03-08T02:10:52;2.47;72.27
72128;DHT22;60000;51.030;7.024;2024-03-08T02:13:17;2.52;72.24
72128;DHT22;60000;51.030;7.024;2024-03-08T02:15:56;2.56;72.10
72128;DHT22;60000;51.030;7.024;2024-03-08T02:18:24;2.54;71.95
72128;DHT22;60000;51.030;7.024;2024-03-08T02:20:51;2.53;71.86
72128;DHT22;60000;51.030;7.024;2024-03-08T02:23:17;2.53;72.12
72128;DHT22;60000;51.030;7.024;2024-03-08T02:25:43;2.49;71.87
72128;DHT22;60000;51.030;7.024;2024-03-08T02:28:12;2.46;72.20
72128;DHT22;60000;51.030;7.024;2024-03-08T02:30:38;2.46;72.14
72128;DHT22;60000;51.030;7.024;2024-03-08T02:33:04;2.47;72.07
72128;DHT22;60000;51.030;7.024;2024-03-08T02:35:30;2.46;72.17
72128;DHT22;60000;51.030;7.024;2024-03-08T02:37:55;2.46;71.95
72128;DHT22;60000;51.030;7.024;2024-03-08T02:40:21;2.40;71.68
72128;DHT22;60000;51.030;7.024;2024-03-08T02:42:47;2.35;71.79
72128;DHT22;60000;51.030;7.024;2024-03-08T02:45:12;2.35;72.11
72128;DHT22;60000;51.030;7.024;2024-03-08T02:47:38;2.30;71.97
72128;DHT22;60000;51.030;7.024;2024-03-08T02:50:05;2.30;72.19
72128;DHT22;60000;51.030;7.024;2024-03-08T02:52:33;2.32;71.95
72128;DHT22;60000;51.030;7.024;2024-03-08T02:55:01;2.29;71.83
72128;DHT22;60000;51.030;7.024;2024-03-08T02:57:27;2.28;71.95
72128;DHT22;60000;51.030;7.024;2024-03-08T02:59:53;2.30;72.11
72128;DHT22;60000;51.030;7.024;2024-03-08T03:02:19;2.26;72.01
72128;DHT22;60000;51.030;7.024;2024-03-08T03:04:44;2.22;72.06
72128;DHT22;60000;51.030;7.024;2024-03-08T03:07:09;2.22;72.30
72128;DHT22;60000;51.030;7.024;2024-03-08T03:09:36;2.19;72.36
72128;DHT22;60000;51.030;7.024;2024-03-08T03:12:01;2.18;72.30
72128;DHT22;60000;51.030;7.024;2024-03-08T03:14:27;2.18;72.25
72128;DHT22;60000;51.030;7.024;2024-03-08T03:16:53;2.15;72.31
72128;DHT22;60000;51.030;7.024;2024-03-08T03:19:19;2.15;72.35
72128;DHT22;60000;51.030;7.024;2024-03-08T03:21:45;2.11;72.45
72128;DHT22;60000;51.030;7.024;2024-03-08T03:24:10;2.12;72.67
72128;DHT22;60000;51.030;7.024;2024-03-08T03:26:36;2.11;72.70
72128;DHT22;60000;51.030;7.024;2024-03-08T03:29:07;2.08;72.56
72128;DHT22;60000;51.030;7.024;2024-03-08T03:31:34;2.11;72.95
72128;DHT22;60000;51.030;7.024;2024-03-08T03:34:03;2.09;72.73
72128;DHT22;60000;51.030;7.024;2024-03-08T03:36:30;2.09;73.04
72128;DHT22;60000;51.030;7.024;2024-03-08T03:38:55;2.12;72.82
72128;DHT22;60000;51.030;7.024;2024-03-08T03:41:30;2.14;72.88
72128;DHT22;60000;51.030;7.024;2024-03-08T03:43:56;2.16;72.64
72128;DHT22;60000;51.030;7.024;2024-03-08T03:46:21;2.18;72.68
72128;DHT22;60000;51.030;7.024;2024-03-08T03:48:46;2.22;72.88
72128;DHT22;60000;51.030;7.024;2024-03-08T03:51:12;2.24;72.91
72128;DHT22;60000;51.030;7.024;2024-03-08T03:53:37;2.25;72.52
72128;DHT22;60000;51.030;7.024;2024-03-08T03:56:03;2.29;72.58
72128;DHT22;60000;51.030;7.024;2024-03-08T03:58:32;2.29;72.57
72128;DHT22;60000;51.030;7.024;2024-03-08T04:00:57;2.30;72.70
72128;DHT22;60000;51.030;7.024;2024-03-08T04:03:22;2.37;72.61
72128;DHT22;60000;51.030;7.024;2024-03-08T04:05:48;2.36;72.40
72128;DHT22;60000;51.030;7.024;2024-03-08T04:08:13;2.37;72.11
72128;DHT22;60000;51.030;7.024;2024-03-08T04:10:39;2.37;72.10
72128;DHT22;60000;51.030;7.024;2024-03-08T04:13:04;2.32;72.31
72128;DHT22;60000;51.030;7.024;2024-03-08T04:15:29;2.36;72.14
72128;DHT22;60000;51.030;7.024;2024-03-08T04:17:55;2.32;72.03
72128;DHT22;60000;51.030;7.024;2024-03-08T04:20:22;2.29;72.17
72128;DHT22;60000;51.030;7.024;2024-03-08T04:22:47;2.32;72.34
72128;DHT22;60000;51.030;7.024;2024-03-08T04:25:14;2.29;72.28
72128;DHT22;60000;51.030;7.024;2024-03-08T04:27:39;2.25;72.39
72128;DHT22;60000;51.030;7.024;2024-03-08T04:30:06;2.29;72.52
72128;DHT22;60000;51.030;7.024;2024-03-08T04:32:34;2.33;72.53
72128;DHT22;60000;51.030;7.024;2024-03-08T04:35:00;2.37;72.59
72128;DHT22;60000;51.030;7.024;2024-03-08T04:37:29;2.36;72.32
72128;DHT22;60000;51.030;7.024;2024-03-08T04:39:57;2.40;72.37
72128;DHT22;60000;51.030;7.024;2024-03-08T04:42:23;2.40;72.45
72128;DHT22;60000;51.030;7.024;2024-03-08T04:44:48;2.42;72.50
72128;DHT22;60000;51.030;7.024;2024-03-08T04:47:13;2.42;72.39
72128;DHT22;60000;51.030;7.024;2024-03-08T04:49:39;2.45;72.30
72128;DHT22;60000;51.030;7.024;2024-03-08T04:52:05;2.45;72.26
72128;DHT22;60000;51.030;7.024;2024-03-08T04:54:30;2.46;72.31
72128;DHT22;60000;51.030;7.024;2024-03-08T04:56:57;2.43;72.34
72128;DHT22;60000;51.030;7.024;2024-03-08T04:59:22;2.45;72.23
72128;DHT22;60000;51.030;7.024;2024-03-08T05:01:47;2.43;72.33
72128;DHT22;60000;51.030;7.024;2024-03-08T05:04:13;2.43;72.21
72128;DHT22;60000;51.030;7.024;2024-03-08T05:06:39;2.46;72.30
72128;DHT22;60000;51.030;7.024;2024-03-08T05:09:04;2.46;72.25
72128;DHT22;60000;51.030;7.024;2024-03-08T05:11:43;2.49;72.19
72128;DHT22;60000;51.030;7.024;2024-03-08T05:14:12;2.47;72.14
72128;DHT22;60000;51.030;7.024;2024-03-08T05:16:47;2.47;72.16
72128;DHT22;60000;51.030;7.024;2024-03-08T05:19:16;2.45;72.12
72128;DHT22;60000;51.030;7.024;2024-03-08T05:21:48;2.49;72.22
72128;DHT22;60000;51.030;7.024;2024-03-08T05:24:13;2.47;72.19
72128;DHT22;60000;51.030;7.024;2024-03-08T05:26:40;2.47;72.35
72128;DHT22;60000;51.030;7.024;2024-03-08T05:29:07;2.47;72.37
72128;DHT22;60000;51.030;7.024;2024-03-08T05:34:12;2.49;72.32
72128;DHT22;60000;51.030;7.024;2024-03-08T05:36:40;2.50;72.20
72128;DHT22;60000;51.030;7.024;2024-03-08T05:39:06;2.49;72.09
72128;DHT22;60000;51.030;7.024;2024-03-08T05:41:32;2.46;72.24
72128;DHT22;60000;51.030;7.024;2024-03-08T05:43:57;2.45;72.18
72128;DHT22;60000;51.030;7.024;2024-03-08T05:46:22;2.47;72.37
72128;DHT22;60000;51.030;7.024;2024-03-08T05:48:48;2.45;72.35
72128;DHT22;60000;51.030;7.024;2024-03-08T05:51:13;2.45;72.41
72128;DHT22;60000;51.030;7.024;2024-03-08T05:53:38;2.43;72.63
72128;DHT22;60000;51.030;7.024;2024-03-08T05:56:04;2.42;72.48
72128;DHT22;60000;51.030;7.024;2024-03-08T05:58:29;2.42;72.63
72128;DHT22;60000;51.030;7.024;2024-03-08T06:00:57;2.42;72.49
72128;DHT22;60000;51.030;7.024;2024-03-08T06:03:23;2.39;72.59
72128;DHT22;60000;51.030;7.024;2024-03-08T06:05:48;2.39;72.67
72128;DHT22;60000;51.030;7.024;2024-03-08T06:08:14;2.40;72.78
72128;DHT22;60000;51.030;7.024;2024-03-08T06:10:40;2.39;72.77
72128;DHT22;60000;51.030;7.024;2024-03-08T06:13:05;2.40;72.83
72128;DHT22;60000;51.030;7.024;2024-03-08T06:15:31;2.40;72.86
72128;DHT22;60000;51.030;7.024;2024-03-08T06:17:57;2.43;72.88
72128;DHT22;60000;51.030;7.024;2024-03-08T06:20:22;2.40;72.75
72128;DHT22;60000;51.030;7.024;2024-03-08T06:22:51;2.42;72.88
72128;DHT22;60000;51.030;7.024;2024-03-08T06:25:16;2.43;72.82
72128;DHT22;60000;51.030;7.024;2024-03-08T06:27:42;2.40;72.80
72128;DHT22;60000;51.030;7.024;2024-03-08T06:30:08;2.40;73.01
72128;DHT22;60000;51.030;7.024;2024-03-08T06:32:37;2.39;72.92
72128;DHT22;60000;51.030;7.024;2024-03-08T06:35:06;2.36;73.15
72128;DHT22;60000;51.030;7.024;2024-03-08T06:37:35;2.42;73.32
72128;DHT22;60000;51.030;7.024;2024-03-08T06:40:01;2.40;73.37
72128;DHT22;60000;51.030;7.024;2024-03-08T06:42:29;2.45;73.62
72128;DHT22;60000;51.030;7.024;2024-03-08T06:44:58;2.46;73.48
72128;DHT22;60000;51.030;7.024;2024-03-08T06:47:29;2.47;73.43
72128;DHT22;60000;51.030;7.024;2024-03-08T06:49:54;2.52;73.54
72128;DHT22;60000;51.030;7.024;2024-03-08T06:52:20;2.54;73.52
72128;DHT22;60000;51.030;7.024;2024-03-08T06:54:45;2.57;73.46
72128;DHT22;60000;51.030;7.024;2024-03-08T06:57:11;2.64;73.45
72128;DHT22;60000;51.030;7.024;2024-03-08T06:59:36;2.68;73.31
72128;DHT22;60000;51.030;7.024;2024-03-08T07:02:02;2.72;73.36
72128;DHT22;60000;51.030;7.024;2024-03-08T07:04:27;2.77;73.36
72128;DHT22;60000;51.030;7.024;2024-03-08T07:06:55;2.84;73.34
72128;DHT22;60000;51.030;7.024;2024-03-08T07:09:21;2.93;73.22
72128;DHT22;60000;51.030;7.024;2024-03-08T07:11:47;2.94;73.19
72128;DHT22;60000;51.030;7.024;2024-03-08T07:14:12;3.01;73.22
72128;DHT22;60000;51.030;7.024;2024-03-08T07:16:40;3.09;73.03
72128;DHT22;60000;51.030;7.024;2024-03-08T07:19:06;3.16;72.80
72128;DHT22;60000;51.030;7.024;2024-03-08T07:21:32;3.24;72.71
72128;DHT22;60000;51.030;7.024;2024-03-08T07:23:57;3.31;72.40
72128;DHT22;60000;51.030;7.024;2024-03-08T07:26:25;3.38;72.28
72128;DHT22;60000;51.030;7.024;2024-03-08T07:28:51;3.46;72.17
72128;DHT22;60000;51.030;7.024;2024-03-08T07:31:17;3.56;71.78
72128;DHT22;60000;51.030;7.024;2024-03-08T07:33:52;3.63;71.72
72128;DHT22;60000;51.030;7.024;2024-03-08T07:36:18;3.70;71.31
72128;DHT22;60000;51.030;7.024;2024-03-08T07:38:44;3.80;71.20
72128;DHT22;60000;51.030;7.024;2024-03-08T07:41:12;3.94;71.07
72128;DHT22;60000;51.030;7.024;2024-03-08T07:43:38;4.18;70.88
72128;DHT22;60000;51.030;7.024;2024-03-08T07:46:03;4.45;70.53
72128;DHT22;60000;51.030;7.024;2024-03-08T07:48:28;4.77;69.59
72128;DHT22;60000;51.030;7.024;2024-03-08T07:50:54;5.03;69.66
72128;DHT22;60000;51.030;7.024;2024-03-08T07:53:19;5.28;68.05
72128;DHT22;60000;51.030;7.024;2024-03-08T07:55:44;5.50;67.41
72128;DHT22;60000;51.030;7.024;2024-03-08T07:58:10;5.81;67.43
72128;DHT22;60000;51.030;7.024;2024-03-08T08:00:36;6.03;65.52
72128;DHT22;60000;51.030;7.024;2024-03-08T08:03:03;6.29;65.32
72128;DHT22;60000;51.030;7.024;2024-03-08T08:05:28;6.53;64.51
72128;DHT22;60000;51.030;7.024;2024-03-08T08:07:53;6.68;63.92
72128;DHT22;60000;51.030;7.024;2024-03-08T08:10:19;6.82;62.42
72128;DHT22;60000;51.030;7.024;2024-03-08T08:12:48;6.99;62.03
72128;DHT22;60000;51.030;7.024;2024-03-08T08:15:13;7.18;61.59
72128;DHT22;60000;51.030;7.024;2024-03-08T08:17:44;7.36;60.49
72128;DHT22;60000;51.030;7.024;2024-03-08T08:20:10;7.51;60.41
72128;DHT22;60000;51.030;7.024;2024-03-08T08:22:39;7.63;59.64
72128;DHT22;60000;51.030;7.024;2024-03-08T08:25:06;7.67;59.23
72128;DHT22;60000;51.030;7.024;2024-03-08T08:27:32;7.88;59.53
72128;DHT22;60000;51.030;7.024;2024-03-08T08:29:57;8.13;59.16
72128;DHT22;60000;51.030;7.024;2024-03-08T08:32:22;8.41;58.84
72128;DHT22;60000;51.030;7.024;2024-03-08T08:34:48;8.67;57.84
72128;DHT22;60000;51.030;7.024;2024-03-08T08:37:13;8.85;56.86
72128;DHT22;60000;51.030;7.024;2024-03-08T08:39:39;8.90;56.25
72128;DHT22;60000;51.030;7.024;2024-03-08T08:42:04;9.04;56.21
72128;DHT22;60000;51.030;7.024;2024-03-08T08:44:29;9.04;54.77
72128;DHT22;60000;51.030;7.024;2024-03-08T08:46:56;9.17;54.70
72128;DHT22;60000;51.030;7.024;2024-03-08T08:49:22;9.31;54.83
72128;DHT22;60000;51.030;7.024;2024-03-08T08:51:52;9.41;54.81
72128;DHT22;60000;51.030;7.024;2024-03-08T08:54:18;9.45;52.96
72128;DHT22;60000;51.030;7.024;2024-03-08T08:56:44;9.70;54.46
72128;DHT22;60000;51.030;7.024;2024-03-08T08:59:09;9.86;53.65
72128;DHT22;60000;51.030;7.024;2024-03-08T09:01:48;10.14;53.64
72128;DHT22;60000;51.030;7.024;2024-03-08T09:04:15;10.24;52.22
72128;DHT22;60000;51.030;7.024;2024-03-08T09:06:41;10.51;51.89
72128;DHT22;60000;51.030;7.024;2024-03-08T09:09:07;10.51;50.43
72128;DHT22;60000;51.030;7.024;2024-03-08T09:11:36;10.41;51.31
72128;DHT22;60000;51.030;7.024;2024-03-08T09:14:03;10.61;51.33
72128;DHT22;60000;51.030;7.024;2024-03-08T09:16:30;10.52;49.86
72128;DHT22;60000;51.030;7.024;2024-03-08T09:18:56;10.45;49.09
72128;DHT22;60000;51.030;7.024;2024-03-08T09:21:22;10.58;51.01
72128;DHT22;60000;51.030;7.024;2024-03-08T09:23:47;10.64;49.71
72128;DHT22;60000;51.030;7.024;2024-03-08T09:26:12;10.61;50.01
72128;DHT22;60000;51.030;7.024;2024-03-08T09:28:40;10.83;50.81
72128;DHT22;60000;51.030;7.024;2024-03-08T09:31:05;10.98;49.58
72128;DHT22;60000;51.030;7.024;2024-03-08T09:33:31;10.99;49.11
72128;DHT22;60000;51.030;7.024;2024-03-08T09:35:56;10.83;48.78
72128;DHT22;60000;51.030;7.024;2024-03-08T09:38:23;10.96;49.05
72128;DHT22;60000;51.030;7.024;2024-03-08T09:40:50;11.00;49.43
72128;DHT22;60000;51.030;7.024;2024-03-08T09:43:15;11.03;48.16
72128;DHT22;60000;51.030;7.024;2024-03-08T09:45:42;11.12;49.42
72128;DHT22;60000;51.030;7.024;2024-03-08T09:48:10;11.13;47.71
72128;DHT22;60000;51.030;7.024;2024-03-08T09:50:40;10.98;47.38
72128;DHT22;60000;51.030;7.024;2024-03-08T09:53:06;11.09;48.91
72128;DHT22;60000;51.030;7.024;2024-03-08T09:55:36;11.30;48.87
72128;DHT22;60000;51.030;7.024;2024-03-08T09:58:02;11.38;48.68
72128;DHT22;60000;51.030;7.024;2024-03-08T10:00:48;11.54;47.32
72128;DHT22;60000;51.030;7.024;2024-03-08T10:03:14;11.37;46.89
72128;DHT22;60000;51.030;7.024;2024-03-08T10:05:42;11.53;47.97
72128;DHT22;60000;51.030;7.024;2024-03-08T10:08:08;11.75;48.01
72128;DHT22;60000;51.030;7.024;2024-03-08T10:10:34;11.94;46.53
72128;DHT22;60000;51.030;7.024;2024-03-08T10:13:00;11.92;46.03
72128;DHT22;60000;51.030;7.024;2024-03-08T10:15:28;11.94;45.75
72128;DHT22;60000;51.030;7.024;2024-03-08T10:17:55;12.02;45.82
72128;DHT22;60000;51.030;7.024;2024-03-08T10:20:21;11.77;45.95
72128;DHT22;60000;51.030;7.024;2024-03-08T10:22:46;11.66;45.49
72128;DHT22;60000;51.030;7.024;2024-03-08T10:25:12;11.79;46.82
72128;DHT22;60000;51.030;7.024;2024-03-08T10:27:38;11.92;45.78
72128;DHT22;60000;51.030;7.024;2024-03-08T10:30:06;12.11;46.52
72128;DHT22;60000;51.030;7.024;2024-03-08T10:32:31;12.32;45.89
72128;DHT22;60000;51.030;7.024;2024-03-08T10:34:57;12.32;44.29
72128;DHT22;60000;51.030;7.024;2024-03-08T10:37:22;12.32;44.88
72128;DHT22;60000;51.030;7.024;2024-03-08T10:40:02;12.56;46.33
72128;DHT22;60000;51.030;7.024;2024-03-08T10:42:40;12.66;44.23
72128;DHT22;60000;51.030;7.024;2024-03-08T10:45:18;12.91;44.30
72128;DHT22;60000;51.030;7.024;2024-03-08T10:47:49;13.05;44.74
72128;DHT22;60000;51.030;7.024;2024-03-08T10:50:20;13.35;44.55
72128;DHT22;60000;51.030;7.024;2024-03-08T10:52:51;13.38;43.29
72128;DHT22;60000;51.030;7.024;2024-03-08T10:55:17;13.14;42.24
72128;DHT22;60000;51.030;7.024;2024-03-08T10:57:45;13.28;42.23
72128;DHT22;60000;51.030;7.024;2024-03-08T11:00:12;13.01;41.95
72128;DHT22;60000;51.030;7.024;2024-03-08T11:02:38;13.08;43.02
72128;DHT22;60000;51.030;7.024;2024-03-08T11:05:04;13.07;42.06
72128;DHT22;60000;51.030;7.024;2024-03-08T11:07:34;13.03;42.68
72128;DHT22;60000;51.030;7.024;2024-03-08T11:10:02;13.05;42.91
72128;DHT22;60000;51.030;7.024;2024-03-08T11:12:36;13.12;41.93
72128;DHT22;60000;51.030;7.024;2024-03-08T11:15:09;13.12;42.01
72128;DHT22;60000;51.030;7.024;2024-03-08T11:17:41;12.94;42.18
72128;DHT22;60000;51.030;7.024;2024-03-08T11:20:11;12.67;41.96
72128;DHT22;60000;51.030;7.024;2024-03-08T11:22:53;12.72;41.78
72128;DHT22;60000;51.030;7.024;2024-03-08T11:25:38;12.87;43.08
72128;DHT22;60000;51.030;7.024;2024-03-08T11:28:17;13.05;42.17
72128;DHT22;60000;51.030;7.024;2024-03-08T11:30:47;13.05;41.71
72128;DHT22;60000;51.030;7.024;2024-03-08T11:33:35;13.10;42.07
72128;DHT22;60000;51.030;7.024;2024-03-08T11:38:40;13.16;42.12
72128;DHT22;60000;51.030;7.024;2024-03-08T11:41:05;13.35;41.95
72128;DHT22;60000;51.030;7.024;2024-03-08T11:43:31;13.24;41.49
72128;DHT22;60000;51.030;7.024;2024-03-08T11:46:16;13.28;41.72
72128;DHT22;60000;51.030;7.024;2024-03-08T11:48:42;13.16;41.50
72128;DHT22;60000;51.030;7.024;2024-03-08T11:51:11;13.26;41.79
72128;DHT22;60000;51.030;7.024;2024-03-08T11:53:40;13.10;41.54
72128;DHT22;60000;51.030;7.024;2024-03-08T11:56:10;13.03;41.74
72128;DHT22;60000;51.030;7.024;2024-03-08T11:58:36;13.01;41.70
72128;DHT22;60000;51.030;7.024;2024-03-08T12:01:09;12.86;41.31
72128;DHT22;60000;51.030;7.024;2024-03-08T12:03:39;12.77;42.34
72128;DHT22;60000;51.030;7.024;2024-03-08T12:06:04;12.77;42.39
72128;DHT22;60000;51.030;7.024;2024-03-08T12:08:32;12.67;41.94
72128;DHT22;60000;51.030;7.024;2024-03-08T12:10:58;12.64;42.52
72128;DHT22;60000;51.030;7.024;2024-03-08T12:13:33;12.68;42.20
72128;DHT22;60000;51.030;7.024;2024-03-08T12:16:02;12.79;42.39
72128;DHT22;60000;51.030;7.024;2024-03-08T12:18:33;12.83;42.25
72128;DHT22;60000;51.030;7.024;2024-03-08T12:21:12;12.97;41.67
72128;DHT22;60000;51.030;7.024;2024-03-08T12:23:39;13.01;41.11
72128;DHT22;60000;51.030;7.024;2024-03-08T12:26:15;13.01;41.07
72128;DHT22;60000;51.030;7.024;2024-03-08T12:28:41;12.95;40.19
72128;DHT22;60000;51.030;7.024;2024-03-08T12:31:11;12.84;40.97
72128;DHT22;60000;51.030;7.024;2024-03-08T12:33:57;12.87;41.21
72128;DHT22;60000;51.030;7.024;2024-03-08T12:36:24;12.93;41.08
72128;DHT22;60000;51.030;7.024;2024-03-08T12:38:50;12.98;41.35
72128;DHT22;60000;51.030;7.024;2024-03-08T12:41:17;12.88;41.17
72128;DHT22;60000;51.030;7.024;2024-03-08T12:43:44;12.91;40.82
72128;DHT22;60000;51.030;7.024;2024-03-08T12:46:22;12.98;41.85
72128;DHT22;60000;51.030;7.024;2024-03-08T12:48:51;12.84;40.77
72128;DHT22;60000;51.030;7.024;2024-03-08T12:51:19;12.81;40.56
72128;DHT22;60000;51.030;7.024;2024-03-08T12:53:46;12.81;41.20
72128;DHT22;60000;51.030;7.024;2024-03-08T12:56:12;12.77;40.62
72128;DHT22;60000;51.030;7.024;2024-03-08T12:58:37;12.80;40.76
72128;DHT22;60000;51.030;7.024;2024-03-08T13:01:04;12.86;40.97
72128;DHT22;60000;51.030;7.024;2024-03-08T13:03:33;12.90;40.68
72128;DHT22;60000;51.030;7.024;2024-03-08T13:06:01;12.84;40.76
72128;DHT22;60000;51.030;7.024;2024-03-08T13:08:29;12.91;41.37
72128;DHT22;60000;51.030;7.024;2024-03-08T13:10:56;12.81;40.34
72128;DHT22;60000;51.030;7.024;2024-03-08T13:13:21;12.77;40.89
72128;DHT22;60000;51.030;7.024;2024-03-08T13:15:48;12.73;40.81
72128;DHT22;60000;51.030;7.024;2024-03-08T13:18:14;12.68;41.07
72128;DHT22;60000;51.030;7.024;2024-03-08T13:20:41;12.70;41.28
72128;DHT22;60000;51.030;7.024;2024-03-08T13:23:09;12.80;41.20
72128;DHT22;60000;51.030;7.024;2024-03-08T13:25:34;12.91;41.52
72128;DHT22;60000;51.030;7.024;2024-03-08T13:27:59;12.94;41.47
72128;DHT22;60000;51.030;7.024;2024-03-08T13:30:26;12.98;41.15
72128;DHT22;60000;51.030;7.024;2024-03-08T13:32:55;12.93;41.87
72128;DHT22;60000;51.030;7.024;2024-03-08T13:35:20;13.04;42.46
72128;DHT22;60000;51.030;7.024;2024-03-08T13:37:51;13.16;42.38
72128;DHT22;60000;51.030;7.024;2024-03-08T13:40:17;13.18;41.89
72128;DHT22;60000;51.030;7.024;2024-03-08T13:42:48;13.22;41.50
72128;DHT22;60000;51.030;7.024;2024-03-08T13:45:16;13.34;42.06
72128;DHT22;60000;51.030;7.024;2024-03-08T13:47:49;13.29;41.77
72128;DHT22;60000;51.030;7.024;2024-03-08T13:50:16;13.29;41.68
72128;DHT22;60000;51.030;7.024;2024-03-08T13:52:49;13.32;42.06
72128;DHT22;60000;51.030;7.024;2024-03-08T13:55:19;13.18;41.79
72128;DHT22;60000;51.030;7.024;2024-03-08T13:57:47;13.12;41.89
72128;DHT22;60000;51.030;7.024;2024-03-08T14:00:13;13.08;42.10
72128;DHT22;60000;51.030;7.024;2024-03-08T14:02:39;13.05;41.63
72128;DHT22;60000;51.030;7.024;2024-03-08T14:05:06;12.97;42.04
72128;DHT22;60000;51.030;7.024;2024-03-08T14:07:34;12.98;42.25
72128;DHT22;60000;51.030;7.024;2024-03-08T14:09:59;13.05;42.53
72128;DHT22;60000;51.030;7.024;2024-03-08T14:12:25;13.03;42.41
72128;DHT22;60000;51.030;7.024;2024-03-08T14:14:52;13.04;42.20
72128;DHT22;60000;51.030;7.024;2024-03-08T14:17:17;13.04;42.51
72128;DHT22;60000;51.030;7.024;2024-03-08T14:19:43;13.03;42.63
72128;DHT22;60000;51.030;7.024;2024-03-08T14:22:09;13.07;42.76
72128;DHT22;60000;51.030;7.024;2024-03-08T14:24:38;13.10;42.43
72128;DHT22;60000;51.030;7.024;2024-03-08T14:27:04;13.00;42.02
72128;DHT22;60000;51.030;7.024;2024-03-08T14:29:33;13.01;42.94
72128;DHT22;60000;51.030;7.024;2024-03-08T14:31:59;12.95;42.60
72128;DHT22;60000;51.030;7.024;2024-03-08T14:34:27;12.97;42.96
72128;DHT22;60000;51.030;7.024;2024-03-08T14:36:55;13.05;43.10
72128;DHT22;60000;51.030;7.024;2024-03-08T14:39:20;13.10;42.62
72128;DHT22;60000;51.030;7.024;2024-03-08T14:41:49;13.10;42.66
72128;DHT22;60000;51.030;7.024;2024-03-08T14:44:20;13.08;42.81
72128;DHT22;60000;51.030;7.024;2024-03-08T14:46:46;13.05;42.77
72128;DHT22;60000;51.030;7.024;2024-03-08T14:49:12;13.07;42.68
72128;DHT22;60000;51.030;7.024;2024-03-08T14:51:37;13.08;42.51
72128;DHT22;60000;51.030;7.024;2024-03-08T14:54:03;13.11;42.75
72128;DHT22;60000;51.030;7.024;2024-03-08T14:56:32;13.12;43.00
72128;DHT22;60000;51.030;7.024;2024-03-08T14:58:57;13.04;42.29
72128;DHT22;60000;51.030;7.024;2024-03-08T15:01:24;12.97;42.55
72128;DHT22;60000;51.030;7.024;2024-03-08T15:03:53;12.84;42.33
72128;DHT22;60000;51.030;7.024;2024-03-08T15:06:19;12.83;43.07
72128;DHT22;60000;51.030;7.024;2024-03-08T15:08:46;12.81;42.82
72128;DHT22;60000;51.030;7.024;2024-03-08T15:11:11;12.83;42.92
72128;DHT22;60000;51.030;7.024;2024-03-08T15:13:37;12.84;43.28
72128;DHT22;60000;51.030;7.024;2024-03-08T15:16:07;12.80;42.99
72128;DHT22;60000;51.030;7.024;2024-03-08T15:18:34;12.79;43.20
72128;DHT22;60000;51.030;7.024;2024-03-08T15:21:00;12.79;43.24
72128;DHT22;60000;51.030;7.024;2024-03-08T15:23:26;12.84;43.60
72128;DHT22;60000;51.030;7.024;2024-03-08T15:25:51;12.79;43.00
72128;DHT22;60000;51.030;7.024;2024-03-08T15:28:17;12.70;43.04
72128;DHT22;60000;51.030;7.024;2024-03-08T15:30:46;12.67;43.30
72128;DHT22;60000;51.030;7.024;2024-03-08T15:33:14;12.61;43.30
72128;DHT22;60000;51.030;7.024;2024-03-08T15:35:41;12.56;42.89
72128;DHT22;60000;51.030;7.024;2024-03-08T15:38:06;12.53;43.63
72128;DHT22;60000;51.030;7.024;2024-03-08T15:40:32;12.53;43.54
72128;DHT22;60000;51.030;7.024;2024-03-08T15:43:00;12.49;43.59
72128;DHT22;60000;51.030;7.024;2024-03-08T15:45:25;12.52;43.79